createdAt,value
2022-12-24T00:01:38.799Z,1.95
2022-12-24T00:04:07.747Z,1.83
2022-12-24T00:06:36.629Z,1.95
2022-12-24T00:09:05.700Z,2.20
2022-12-24T00:11:34.365Z,1.70
2022-12-24T00:14:03.941Z,1.98
2022-12-24T00:16:32.654Z,1.58
2022-12-24T00:19:00.902Z,1.80
2022-12-24T00:21:29.414Z,1.20
2022-12-24T00:23:57.750Z,2.88
2022-12-24T00:26:26.082Z,2.72
2022-12-24T00:28:55.073Z,2.20
2022-12-24T00:31:24.847Z,2.45
2022-12-24T00:33:53.420Z,1.65
2022-12-24T00:36:22.802Z,2.20
2022-12-24T00:38:51.404Z,1.45
2022-12-24T00:41:26.426Z,2.05
2022-12-24T00:43:56.666Z,2.03
2022-12-24T00:46:27.921Z,1.52
2022-12-24T00:48:57.236Z,2.03
2022-12-24T00:51:26.374Z,1.75
2022-12-24T00:53:55.033Z,1.00
2022-12-24T00:56:24.083Z,1.65
2022-12-24T00:58:53.510Z,1.77
2022-12-24T01:01:23.326Z,1.70
2022-12-24T01:04:14.120Z,2.22
2022-12-24T01:06:42.246Z,2.08
2022-12-24T01:09:10.755Z,1.70
2022-12-24T01:11:39.775Z,2.10
2022-12-24T01:14:08.357Z,1.80
2022-12-24T01:16:36.773Z,2.15
2022-12-24T01:19:06.545Z,1.67
2022-12-24T01:21:34.815Z,1.90
2022-12-24T01:24:03.348Z,1.83
2022-12-24T01:26:32.195Z,2.88
2022-12-24T01:29:01.255Z,2.10
2022-12-24T01:31:29.849Z,1.27
2022-12-24T01:33:58.747Z,1.42
2022-12-24T01:36:28.612Z,1.42
2022-12-24T01:38:57.171Z,2.08
2022-12-24T01:41:44.085Z,1.45
2022-12-24T01:44:21.854Z,1.13
2022-12-24T01:46:54.794Z,1.65
2022-12-24T01:49:23.689Z,1.73
2022-12-24T01:52:00.117Z,1.90
2022-12-24T01:54:33.731Z,2.08
2022-12-24T01:57:08.726Z,1.75
2022-12-24T01:59:38.575Z,1.55
2022-12-24T02:02:07.523Z,1.90
2022-12-24T02:04:41.349Z,2.28
2022-12-24T02:07:11.336Z,1.67
2022-12-24T02:09:41.122Z,2.28
2022-12-24T02:12:09.865Z,1.05
2022-12-24T02:14:39.169Z,2.00
2022-12-24T02:17:19.906Z,1.42
2022-12-24T02:20:19.931Z,1.48
2022-12-24T02:23:27.890Z,1.65
2022-12-24T02:26:27.025Z,2.22
2022-12-24T02:29:27.047Z,1.67
2022-12-24T02:32:03.641Z,1.73
2022-12-24T02:34:37.452Z,1.75
2022-12-24T02:37:13.913Z,1.53
2022-12-24T02:39:47.811Z,1.63
2022-12-24T02:42:20.207Z,1.07
2022-12-24T02:44:55.447Z,1.60
2022-12-24T02:47:29.033Z,1.73
2022-12-24T02:49:57.461Z,1.77
2022-12-24T02:52:36.191Z,1.17
2022-12-24T02:55:08.971Z,1.92
2022-12-24T02:58:11.729Z,2.45
2022-12-24T03:00:55.462Z,1.77
2022-12-24T03:03:39.828Z,2.05
2022-12-24T03:06:17.608Z,2.15
2022-12-24T03:08:52.739Z,2.20
2022-12-24T03:11:21.359Z,1.33
2022-12-24T03:13:51.602Z,1.33
2022-12-24T03:16:25.956Z,1.65
2022-12-24T03:18:58.682Z,1.88
2022-12-24T03:21:32.098Z,1.90
2022-12-24T03:24:01.207Z,2.22
2022-12-24T03:26:32.343Z,1.73
2022-12-24T03:29:01.375Z,1.83
2022-12-24T03:31:43.346Z,1.77
2022-12-24T03:34:14.946Z,1.45
2022-12-24T03:36:44.062Z,1.73
2022-12-24T03:39:12.809Z,1.25
2022-12-24T03:41:41.405Z,1.63
2022-12-24T03:44:10.237Z,1.85
2022-12-24T03:46:38.886Z,1.75
2022-12-24T03:49:07.413Z,1.83
2022-12-24T03:51:37.144Z,1.77
2022-12-24T03:54:05.775Z,1.60
2022-12-24T03:56:34.292Z,2.08
2022-12-24T03:59:02.819Z,1.58
2022-12-24T04:01:31.187Z,1.48
2022-12-24T04:03:59.517Z,1.90
2022-12-24T04:06:28.065Z,1.75
2022-12-24T04:08:59.208Z,1.58
2022-12-24T04:11:27.740Z,1.20
2022-12-24T04:13:55.935Z,2.05
2022-12-24T04:16:24.651Z,1.52
2022-12-24T04:18:53.323Z,1.40
2022-12-24T04:21:21.964Z,1.98
2022-12-24T04:23:51.149Z,1.70
2022-12-24T04:26:20.843Z,1.25
2022-12-24T04:28:49.373Z,1.77
2022-12-24T04:31:18.970Z,2.22
2022-12-24T04:33:48.051Z,2.08
2022-12-24T04:36:18.721Z,1.90
2022-12-24T04:38:48.298Z,2.15
2022-12-24T04:41:24.435Z,2.67
2022-12-24T04:43:54.728Z,2.13
2022-12-24T04:46:25.474Z,3.55
2022-12-24T04:48:55.362Z,2.15
2022-12-24T04:51:25.535Z,1.63
2022-12-24T04:53:54.568Z,2.40
2022-12-24T04:56:27.005Z,2.38
2022-12-24T04:58:55.994Z,2.13
2022-12-24T05:01:27.445Z,2.00
2022-12-24T05:03:56.908Z,1.88
2022-12-24T05:06:28.290Z,3.00
2022-12-24T05:08:57.446Z,3.17
2022-12-24T05:11:28.652Z,3.28
2022-12-24T05:13:57.510Z,1.95
2022-12-24T05:16:26.288Z,2.38
2022-12-24T05:18:55.522Z,1.67
2022-12-24T05:21:25.591Z,1.98
2022-12-24T05:24:11.178Z,2.25
2022-12-24T05:26:45.557Z,2.58
2022-12-24T05:29:14.650Z,2.38
2022-12-24T05:31:45.104Z,2.67
2022-12-24T05:34:14.541Z,1.48
2022-12-24T05:36:43.740Z,3.22
2022-12-24T05:39:16.381Z,1.95
2022-12-24T05:41:48.065Z,2.95
2022-12-24T05:44:17.459Z,2.25
2022-12-24T05:46:46.142Z,1.95
2022-12-24T05:49:15.128Z,3.20
2022-12-24T05:51:44.275Z,2.42
2022-12-24T05:54:12.845Z,2.53
2022-12-24T05:56:41.386Z,2.38
2022-12-24T05:59:11.186Z,2.28
2022-12-24T06:01:39.794Z,2.42
2022-12-24T06:04:08.767Z,2.65
2022-12-24T06:06:37.416Z,2.20
2022-12-24T06:09:06.194Z,2.83
2022-12-24T06:11:34.697Z,2.40
2022-12-24T06:14:04.537Z,3.45
2022-12-24T06:16:34.265Z,3.08
2022-12-24T06:19:02.550Z,2.80
2022-12-24T06:21:31.456Z,3.60
2022-12-24T06:24:01.135Z,3.45
2022-12-24T06:26:29.666Z,2.90
2022-12-24T06:29:01.543Z,2.30
2022-12-24T06:31:30.118Z,2.30
2022-12-24T06:33:59.743Z,3.50
2022-12-24T06:36:28.001Z,2.25
2022-12-24T06:38:56.991Z,2.20
2022-12-24T06:41:25.933Z,3.28
2022-12-24T06:43:54.915Z,2.67
2022-12-24T06:46:23.675Z,2.97
2022-12-24T06:48:52.313Z,3.15
2022-12-24T06:51:22.273Z,2.88
2022-12-24T06:53:51.548Z,2.50
2022-12-24T06:56:21.829Z,2.92
2022-12-24T06:58:50.502Z,2.75
2022-12-24T07:01:21.196Z,3.30
2022-12-24T07:03:50.041Z,3.15
2022-12-24T07:06:26.055Z,2.83
2022-12-24T07:08:54.738Z,3.05
2022-12-24T07:11:24.360Z,2.30
2022-12-24T07:13:52.940Z,3.50
2022-12-24T07:16:21.561Z,2.45
2022-12-24T07:18:50.299Z,3.20
2022-12-24T07:21:18.826Z,2.53
2022-12-24T07:23:48.436Z,3.38
2022-12-24T07:26:16.990Z,2.92
2022-12-24T07:28:45.481Z,3.17
2022-12-24T07:31:13.728Z,3.47
2022-12-24T07:33:42.284Z,3.15
2022-12-24T07:36:16.962Z,3.53
2022-12-24T07:41:15.053Z,2.33
2022-12-24T07:43:43.592Z,3.28
2022-12-24T07:46:12.547Z,3.30
2022-12-24T07:48:41.239Z,2.45
2022-12-24T07:51:09.767Z,2.60
2022-12-24T07:53:38.106Z,3.75
2022-12-24T07:56:12.511Z,3.20
2022-12-24T07:58:43.104Z,3.38
2022-12-24T08:01:13.653Z,3.80
2022-12-24T08:03:42.397Z,2.95
2022-12-24T08:06:11.642Z,2.28
2022-12-24T08:08:40.366Z,3.60
2022-12-24T08:11:09.052Z,2.95
2022-12-24T08:13:37.590Z,3.25
2022-12-24T08:16:08.132Z,3.42
2022-12-24T08:18:36.703Z,3.65
2022-12-24T08:21:07.871Z,4.85
2022-12-24T08:23:36.531Z,2.95
2022-12-24T08:26:07.523Z,3.53
2022-12-24T08:28:35.823Z,3.00
2022-12-24T08:31:06.193Z,3.53
2022-12-24T08:33:34.917Z,4.00
2022-12-24T08:36:04.667Z,2.72
2022-12-24T08:38:33.595Z,3.63
2022-12-24T08:41:01.887Z,3.20
2022-12-24T08:43:30.721Z,3.83
2022-12-24T08:46:05.215Z,3.42
2022-12-24T08:48:35.348Z,2.97
2022-12-24T08:51:09.629Z,2.65
2022-12-24T08:53:38.615Z,2.70
2022-12-24T08:56:09.779Z,2.13
2022-12-24T08:58:38.639Z,3.03
2022-12-24T09:01:14.473Z,3.10
2022-12-24T09:03:44.825Z,2.78
2022-12-24T09:06:13.801Z,3.45
2022-12-24T09:08:42.452Z,3.65
2022-12-24T09:11:13.307Z,3.53
2022-12-24T09:13:42.203Z,3.58
2022-12-24T09:16:10.895Z,3.00
2022-12-24T09:18:39.865Z,3.65
2022-12-24T09:21:14.955Z,2.80
2022-12-24T09:23:45.391Z,3.25
2022-12-24T09:26:16.655Z,3.05
2022-12-24T09:28:45.318Z,4.03
2022-12-24T09:31:14.745Z,3.70
2022-12-24T09:33:45.624Z,3.13
2022-12-24T09:36:16.256Z,2.67
2022-12-24T09:38:44.922Z,3.28
2022-12-24T09:41:15.996Z,3.75
2022-12-24T09:43:50.925Z,4.00
2022-12-24T09:46:25.191Z,3.70
2022-12-24T09:48:59.243Z,3.17
2022-12-24T09:51:35.119Z,3.08
2022-12-24T09:54:08.747Z,3.72
2022-12-24T09:56:42.078Z,4.07
2022-12-24T09:59:15.829Z,5.15
2022-12-24T10:01:44.850Z,3.90
2022-12-24T10:04:17.439Z,2.50
2022-12-24T10:06:55.130Z,3.45
2022-12-24T10:09:32.584Z,4.05
2022-12-24T10:12:10.349Z,3.55
2022-12-24T10:15:00.722Z,3.58
2022-12-24T10:17:51.184Z,2.97
2022-12-24T10:20:35.396Z,5.00
2022-12-24T10:23:14.853Z,2.53
2022-12-24T10:25:50.712Z,4.60
2022-12-24T10:28:29.200Z,3.83
2022-12-24T10:31:04.388Z,3.75
2022-12-24T10:33:39.324Z,3.67
2022-12-24T10:38:42.274Z,3.33
2022-12-24T10:41:11.275Z,3.42
2022-12-24T10:43:42.313Z,3.78
2022-12-24T10:46:22.047Z,3.17
2022-12-24T10:48:56.129Z,2.92
2022-12-24T10:51:34.009Z,3.63
2022-12-24T10:54:13.196Z,2.88
2022-12-24T10:56:43.770Z,3.00
2022-12-24T10:59:28.090Z,4.40
2022-12-24T11:01:58.429Z,2.77
2022-12-24T11:04:29.541Z,4.72
2022-12-24T11:06:59.942Z,2.75
2022-12-24T11:09:33.186Z,3.85
2022-12-24T11:12:08.940Z,2.90
2022-12-24T11:14:41.035Z,4.65
2022-12-24T11:17:19.787Z,3.65
2022-12-24T11:19:51.628Z,4.30
2022-12-24T11:22:24.647Z,3.22
2022-12-24T11:25:04.167Z,3.22
2022-12-24T11:27:41.103Z,4.10
2022-12-24T11:30:27.587Z,2.45
2022-12-24T11:33:22.511Z,2.67
2022-12-24T11:36:01.491Z,3.85
2022-12-24T11:38:32.808Z,3.45
2022-12-24T11:41:08.029Z,3.67
2022-12-24T11:43:46.702Z,2.53
2022-12-24T11:46:22.747Z,3.08
2022-12-24T11:49:14.168Z,3.47
2022-12-24T11:52:03.731Z,3.65
2022-12-24T11:54:40.175Z,3.05
2022-12-24T11:57:13.796Z,3.95
2022-12-24T11:59:47.258Z,2.40
2022-12-24T12:02:23.414Z,3.28
2022-12-24T12:04:58.225Z,3.33
2022-12-24T12:07:30.905Z,2.83
2022-12-24T12:10:05.351Z,3.72
2022-12-24T12:12:40.931Z,2.75
2022-12-24T12:15:15.909Z,2.45
2022-12-24T12:17:50.481Z,2.72
2022-12-24T12:20:24.467Z,2.70
2022-12-24T12:23:01.744Z,2.97
2022-12-24T12:25:38.302Z,3.15
2022-12-24T12:28:23.297Z,3.70
2022-12-24T12:31:03.378Z,3.53
2022-12-24T12:33:40.433Z,2.72
2022-12-24T12:36:11.427Z,3.38
2022-12-24T12:38:41.187Z,3.90
2022-12-24T12:41:29.154Z,4.60
2022-12-24T12:44:42.149Z,3.50
2022-12-24T12:47:56.485Z,3.28
2022-12-24T12:50:32.973Z,2.97
2022-12-24T12:53:23.194Z,2.75
2022-12-24T12:55:58.818Z,4.63
2022-12-24T12:58:33.188Z,3.67
2022-12-24T13:01:11.432Z,3.40
2022-12-24T13:04:37.026Z,3.53
2022-12-24T13:07:57.844Z,3.40
2022-12-24T13:10:44.578Z,2.20
2022-12-24T13:13:45.290Z,4.70
2022-12-24T13:16:38.197Z,2.83
2022-12-24T13:19:24.724Z,2.75
2022-12-24T13:21:56.606Z,3.08
2022-12-24T13:24:28.846Z,3.67
2022-12-24T13:27:07.234Z,2.33
2022-12-24T13:29:52.432Z,2.00
2022-12-24T13:35:37.531Z,2.95
2022-12-24T13:38:40.114Z,3.85
2022-12-24T13:41:56.871Z,2.60
2022-12-24T13:44:32.802Z,2.75
2022-12-24T13:47:32.008Z,2.17
2022-12-24T13:50:23.639Z,2.55
2022-12-24T13:52:54.073Z,3.17
2022-12-24T13:55:23.301Z,2.60
2022-12-24T13:57:59.033Z,3.28
2022-12-24T14:00:42.090Z,2.00
2022-12-24T14:03:30.369Z,2.50
2022-12-24T14:06:03.790Z,5.10
2022-12-24T14:08:39.882Z,2.15
2022-12-24T14:11:13.160Z,2.72
2022-12-24T14:14:26.836Z,2.40
2022-12-24T14:16:59.304Z,2.00
2022-12-24T14:19:37.286Z,2.05
2022-12-24T14:22:23.011Z,2.30
2022-12-24T14:27:30.341Z,2.88
2022-12-24T14:30:05.720Z,3.22
2022-12-24T14:32:39.258Z,3.63
2022-12-24T14:35:10.696Z,3.17
2022-12-24T14:37:41.167Z,3.70
2022-12-24T14:40:17.410Z,3.80
2022-12-24T14:43:00.026Z,5.05
2022-12-24T14:45:38.631Z,4.75
2022-12-24T14:48:18.224Z,5.45
2022-12-24T14:51:06.061Z,14.88
2022-12-24T14:53:56.622Z,7.45
2022-12-24T14:56:25.503Z,4.25
2022-12-24T14:58:54.001Z,3.50
2022-12-24T15:01:25.645Z,6.13
2022-12-24T15:04:06.504Z,4.00
2022-12-24T15:06:38.105Z,4.40
2022-12-24T15:09:14.514Z,7.20
2022-12-24T15:11:45.872Z,8.25
2022-12-24T15:14:15.102Z,7.30
2022-12-24T15:16:45.012Z,7.28
2022-12-24T15:19:23.404Z,8.43
2022-12-24T15:21:52.261Z,7.60
2022-12-24T15:24:32.279Z,15.18
2022-12-24T15:27:02.955Z,7.40
2022-12-24T15:29:34.400Z,11.75
2022-12-24T15:32:04.833Z,7.80
2022-12-24T15:34:40.914Z,4.50
2022-12-24T15:37:19.229Z,4.22
2022-12-24T15:39:56.525Z,3.97
2022-12-24T15:42:26.409Z,5.57
2022-12-24T15:45:03.625Z,8.38
2022-12-24T15:47:38.143Z,9.38
2022-12-24T15:52:44.795Z,8.82
2022-12-24T15:55:29.333Z,10.88
2022-12-24T15:57:57.716Z,9.95
2022-12-24T16:00:31.054Z,12.23
2022-12-24T16:03:13.059Z,14.35
2022-12-24T16:05:41.989Z,10.80
2022-12-24T16:08:34.147Z,10.60
2022-12-24T16:11:17.453Z,9.73
2022-12-24T16:14:07.804Z,11.68
2022-12-24T16:16:40.033Z,12.45
2022-12-24T16:19:17.185Z,8.73
2022-12-24T16:21:46.241Z,7.60
2022-12-24T16:24:19.230Z,7.88
2022-12-24T16:26:49.025Z,7.40
2022-12-24T16:29:19.442Z,7.95
2022-12-24T16:31:51.358Z,8.13
2022-12-24T16:34:21.590Z,11.07
2022-12-24T16:36:49.928Z,10.90
2022-12-24T16:39:25.284Z,11.20
2022-12-24T16:42:19.812Z,11.88
2022-12-24T16:44:49.015Z,10.73
2022-12-24T16:47:22.657Z,8.38
2022-12-24T16:49:52.499Z,7.30
2022-12-24T16:52:23.379Z,7.88
2022-12-24T16:54:51.989Z,6.45
2022-12-24T16:57:22.064Z,6.68
2022-12-24T16:59:52.388Z,4.60
2022-12-24T17:02:23.063Z,5.13
2022-12-24T17:04:51.861Z,5.03
2022-12-24T17:07:22.221Z,9.10
2022-12-24T17:09:50.795Z,19.13
2022-12-24T17:12:21.613Z,16.85
2022-12-24T17:14:50.400Z,24.58
2022-12-24T17:17:24.519Z,13.68
2022-12-24T17:19:53.067Z,10.75
2022-12-24T17:22:21.626Z,10.68
2022-12-24T17:24:49.902Z,9.50
2022-12-24T17:27:18.512Z,8.40
2022-12-24T17:29:48.163Z,8.90
2022-12-24T17:32:16.875Z,6.70
2022-12-24T17:34:45.219Z,7.70
2022-12-24T17:37:13.616Z,7.85
2022-12-24T17:39:41.826Z,9.30
2022-12-24T17:42:10.123Z,9.02
2022-12-24T17:44:38.887Z,7.18
2022-12-24T17:47:08.579Z,5.03
2022-12-24T17:49:36.878Z,4.50
2022-12-24T17:52:05.912Z,6.63
2022-12-24T17:54:34.158Z,5.85
2022-12-24T17:57:02.825Z,6.25
2022-12-24T17:59:31.066Z,8.13
2022-12-24T18:01:59.569Z,11.07
2022-12-24T18:04:29.334Z,6.68
2022-12-24T18:07:02.118Z,7.85
2022-12-24T18:09:31.485Z,6.00
2022-12-24T18:11:59.819Z,6.70
2022-12-24T18:14:28.539Z,6.55
2022-12-24T18:16:57.074Z,11.50
2022-12-24T18:19:25.588Z,12.95
2022-12-24T18:21:55.161Z,9.02
2022-12-24T18:24:23.880Z,7.85
2022-12-24T18:26:52.517Z,7.22
2022-12-24T18:29:21.076Z,7.10
2022-12-24T18:31:49.653Z,7.60
2022-12-24T18:34:18.320Z,6.72
2022-12-24T18:36:52.915Z,6.40
2022-12-24T18:39:24.826Z,6.60
2022-12-24T18:41:53.426Z,8.30
2022-12-24T18:44:25.232Z,10.00
2022-12-24T18:46:54.476Z,12.35
2022-12-24T18:49:23.049Z,8.15
2022-12-24T18:51:51.317Z,5.90
2022-12-24T18:54:19.847Z,8.05
2022-12-24T18:56:51.665Z,6.53
2022-12-24T18:59:20.282Z,7.72
2022-12-24T19:01:48.965Z,7.53
2022-12-24T19:04:17.849Z,7.50
2022-12-24T19:06:52.668Z,8.27
2022-12-24T19:09:22.029Z,8.13
2022-12-24T19:11:52.002Z,7.88
2022-12-24T19:14:21.087Z,7.65
2022-12-24T19:16:49.776Z,6.72
2022-12-24T19:19:23.799Z,8.52
2022-12-24T19:21:52.417Z,6.78
2022-12-24T19:24:20.941Z,8.18
2022-12-24T19:26:51.025Z,8.38
2022-12-24T19:29:19.664Z,8.98
2022-12-24T19:31:48.076Z,9.50
2022-12-24T19:34:16.766Z,8.30
2022-12-24T19:36:46.681Z,7.65
2022-12-24T19:39:15.412Z,8.45
2022-12-24T19:41:43.850Z,7.68
2022-12-24T19:44:13.441Z,7.25
2022-12-24T19:46:41.920Z,6.88
2022-12-24T19:49:13.229Z,7.07
2022-12-24T19:51:41.889Z,9.43
2022-12-24T19:54:18.607Z,8.98
2022-12-24T19:56:48.064Z,9.07
2022-12-24T19:59:18.015Z,9.30
2022-12-24T20:01:47.128Z,10.35
2022-12-24T20:04:18.360Z,10.15
2022-12-24T20:06:46.936Z,9.20
2022-12-24T20:09:15.179Z,9.73
2022-12-24T20:11:43.756Z,10.52
2022-12-24T20:14:13.099Z,9.52
2022-12-24T20:16:42.798Z,9.57
2022-12-24T20:19:15.510Z,12.40
2022-12-24T20:21:44.114Z,6.68
2022-12-24T20:24:12.649Z,9.63
2022-12-24T20:26:41.370Z,8.27
2022-12-24T20:29:12.053Z,10.45
2022-12-24T20:31:42.704Z,12.35
2022-12-24T20:34:12.155Z,11.68
2022-12-24T20:36:40.713Z,12.10
2022-12-24T20:39:09.319Z,8.73
2022-12-24T20:41:37.586Z,11.00
2022-12-24T20:44:06.048Z,10.27
2022-12-24T20:46:35.447Z,9.55
2022-12-24T20:49:05.602Z,11.63
2022-12-24T20:51:34.153Z,9.27
2022-12-24T20:54:02.875Z,10.27
2022-12-24T20:56:31.816Z,10.30
2022-12-24T20:59:01.334Z,10.73
2022-12-24T21:01:30.595Z,9.50
2022-12-24T21:04:04.260Z,10.05
2022-12-24T21:06:34.895Z,9.93
2022-12-24T21:09:03.780Z,8.05
2022-12-24T21:11:49.361Z,9.88
2022-12-24T21:14:20.578Z,8.48
2022-12-24T21:16:49.376Z,8.43
2022-12-24T21:19:20.699Z,8.68
2022-12-24T21:21:50.620Z,9.52
2022-12-24T21:24:19.184Z,6.90
2022-12-24T21:26:47.679Z,8.30
2022-12-24T21:29:16.771Z,7.75
2022-12-24T21:31:45.292Z,8.63
2022-12-24T21:34:13.514Z,8.13
2022-12-24T21:36:42.633Z,7.97
2022-12-24T21:39:12.245Z,7.10
2022-12-24T21:41:40.921Z,6.70
2022-12-24T21:44:09.468Z,7.13
2022-12-24T21:46:38.076Z,7.35
2022-12-24T21:49:24.566Z,7.35
2022-12-24T21:51:52.847Z,7.50
2022-12-24T21:54:26.762Z,6.00
2022-12-24T21:57:15.279Z,8.27
2022-12-24T21:59:44.213Z,6.60
2022-12-24T22:02:14.128Z,6.10
2022-12-24T22:04:43.803Z,6.65
2022-12-24T22:07:39.748Z,6.50
2022-12-24T22:10:28.918Z,5.30
2022-12-24T22:12:59.597Z,8.40
2022-12-24T22:15:28.833Z,6.97
2022-12-24T22:17:57.361Z,7.68
2022-12-24T22:20:25.812Z,7.03
2022-12-24T22:22:54.437Z,6.43
2022-12-24T22:25:24.065Z,6.60
2022-12-24T22:27:53.199Z,6.95
2022-12-24T22:30:21.717Z,6.97
2022-12-24T22:32:50.246Z,6.53
2022-12-24T22:35:18.712Z,7.65
2022-12-24T22:37:47.326Z,8.20
2022-12-24T22:40:16.361Z,7.68
2022-12-24T22:42:45.960Z,7.18
2022-12-24T22:45:20.200Z,8.48
2022-12-24T22:47:51.084Z,8.68
2022-12-24T22:50:19.716Z,9.88
2022-12-24T22:52:47.945Z,8.27
2022-12-24T22:55:16.541Z,9.63
2022-12-24T22:57:46.187Z,8.88
2022-12-24T23:00:37.436Z,7.78
2022-12-24T23:03:06.473Z,7.18
2022-12-24T23:05:35.269Z,7.28
2022-12-24T23:08:04.297Z,8.30
2022-12-24T23:10:32.873Z,7.88
2022-12-24T23:13:19.859Z,7.05
2022-12-24T23:15:48.582Z,7.45
2022-12-24T23:18:17.393Z,6.40
2022-12-24T23:20:46.498Z,6.72
2022-12-24T23:23:15.727Z,6.40
2022-12-24T23:25:44.372Z,6.15
2022-12-24T23:28:14.310Z,6.32
2022-12-24T23:30:42.937Z,6.00
2022-12-24T23:33:11.476Z,6.22
2022-12-24T23:35:39.750Z,6.55
2022-12-24T23:38:08.262Z,5.90
2022-12-24T23:40:36.581Z,6.65
2022-12-24T23:43:05.108Z,6.40
2022-12-24T23:45:34.910Z,6.80
2022-12-24T23:48:03.577Z,6.57
2022-12-24T23:50:32.181Z,6.57
2022-12-24T23:53:00.717Z,5.97
2022-12-24T23:55:29.267Z,6.05
2022-12-24T23:57:57.807Z,6.22
